Time;durP1;ratioP1;P1;durP2;ratioP2;P2;SDS_P1;SDS_P2;PMS_P1;PMS_P2;Temp;Humidity;BMP_temperature;BMP_pressure;BME280_temperature;BME280_humidity;BME280_pressure;Samples;Min_cycle;Max_cycle;Signal;HPM_P1;HPM_P2
2022/07/03 00:00:21;;;;;;;;;;;;;;;22.66;53.61;102003.19;2098222;28;1190;-49
2022/07/03 00:01:22;;;;;;;;;;;;;;;22.64;54.25;101999.66;2099325;28;1095;-48
2022/07/03 00:02:22;;;;;;;;;;;;;;;22.60;54.05;101998.81;2099118;28;1309;-50
2022/07/03 00:03:22;;;;;;;;;;;;;;;22.58;54.66;102000.66;2099250;28;1221;-49
2022/07/03 00:04:22;;;;;;;;;;;;;;;22.58;54.63;102000.66;2099094;28;1288;-53
2022/07/03 00:05:22;;;;;;;;;;;;;;;22.62;54.09;102002.38;2099335;28;1087;-51
2022/07/03 00:06:23;;;;;;;;;;;;;;;22.67;53.83;102002.25;2099199;28;1201;-51
2022/07/03 00:07:23;;;;;;;;;;;;;;;22.69;54.22;101999.53;2099312;28;1178;-51
2022/07/03 00:08:23;;;;;;;;;;;;;;;22.69;54.80;102004.91;2099281;28;1174;-54
2022/07/03 00:09:23;;;;;;;;;;;;;;;22.65;54.45;101999.59;2099281;28;1890;-52
2022/07/03 00:10:23;;;;;;;;;;;;;;;22.63;54.73;102004.13;2099080;28;1090;-50
2022/07/03 00:11:24;;;;;;;;;;;;;;;22.58;54.72;102000.66;2099306;28;1083;-48
2022/07/03 00:12:24;;;;;;;;;;;;;;;22.58;54.62;102006.06;2098231;28;1104;-49
2022/07/03 00:13:24;;;;;;;;;;;;;;;22.57;54.97;102004.28;2099203;28;1248;-49
2022/07/03 00:14:25;;;;;;;;;;;;;;;22.53;55.13;101996.31;2099361;28;1090;-49
2022/07/03 00:15:25;;;;;;;;;;;;;;;22.50;54.95;102003.56;2099348;28;1262;-50
2022/07/03 00:16:25;;;;;;;;;;;;;;;22.48;53.89;101999.09;2099372;28;1157;-48
2022/07/03 00:17:25;;;;;;;;;;;;;;;22.49;54.33;102003.56;2099270;28;1277;-49
2022/07/03 00:18:25;;;;;;;;;;;;;;;22.45;54.12;102004.56;2099240;28;1138;-48
2022/07/03 00:19:25;;;;;;;;;;;;;;;22.43;53.60;102007.28;2099340;28;1047;-52
2022/07/03 00:20:27;;;;;;;;;;;;;;;22.44;52.61;102005.47;2099299;28;1141;-51
2022/07/03 00:21:29;;;;;;;;;;;;;;;22.49;52.47;102004.47;2099091;28;1350;-50
2022/07/03 00:22:30;;;;;;;;;;;;;;;22.47;52.94;102009.03;2099120;28;1261;-50
2022/07/03 00:23:38;;;;;;;;;;;;;;;22.53;51.59;101999.88;2098941;28;948;-53
2022/07/03 00:24:38;;;;;;;;;;;;;;;22.59;51.16;102005.13;2098208;28;1008;-52
2022/07/03 00:25:39;;;;;;;;;;;;;;;22.58;51.02;102007.88;2099141;28;1063;-53
2022/07/03 00:26:41;;;;;;;;;;;;;;;22.60;50.33;102001.50;2099211;28;1123;-52
2022/07/03 00:27:43;;;;;;;;;;;;;;;22.59;50.27;101998.88;2098592;28;1264;-53
2022/07/03 00:28:43;;;;;;;;;;;;;;;22.55;49.65;102003.44;2096429;28;1035;-51
2022/07/03 00:29:44;;;;;;;;;;;;;;;22.52;50.54;102005.31;2098853;28;1971;-48
2022/07/03 00:30:47;;;;;;;;;;;;;;;22.47;50.22;102000.00;2099227;28;1094;-49
2022/07/03 00:31:47;;;;;;;;;;;;;;;22.43;50.31;102011.78;2090117;28;1292;-48
2022/07/03 00:32:48;;;;;;;;;;;;;;;22.42;50.56;102010.00;2092910;28;1091;-50
2022/07/03 00:33:50;;;;;;;;;;;;;;;22.41;49.60;102013.63;2099044;28;1067;-49
2022/07/03 00:34:51;;;;;;;;;;;;;;;22.36;50.09;102006.53;2099119;28;1194;-51
2022/07/03 00:35:53;;;;;;;;;;;;;;;22.35;49.64;102018.25;2098998;28;1059;-51
2022/07/03 00:36:57;;;;;;;;;;;;;;;22.36;50.03;102005.63;2098114;28;1055;-51
2022/07/03 00:37:57;;;;;;;;;;;;;;;22.34;49.75;102007.47;2099084;28;1231;-52
2022/07/03 00:38:57;;;;;;;;;;;;;;;22.43;50.24;102007.28;2099184;28;1047;-53
2022/07/03 00:39:57;;;;;;;;;;;;;;;22.50;49.98;102014.34;2090185;28;1047;-52
2022/07/03 00:40:57;;;;;;;;;;;;;;;22.52;49.16;102014.31;2090502;28;1091;-50
2022/07/03 00:42:02;;;;;;;;;;;;;;;22.50;49.16;102017.06;2099040;28;1000;-53
2022/07/03 00:43:03;;;;;;;;;;;;;;;22.51;49.81;102004.41;2099130;28;1091;-52
2022/07/03 00:44:03;;;;;;;;;;;;;;;22.48;50.07;102007.19;2099064;28;1180;-50
2022/07/03 00:45:06;;;;;;;;;;;;;;;22.43;49.98;102006.38;2090076;28;1064;-49
2022/07/03 00:46:09;;;;;;;;;;;;;;;22.42;50.22;102010.00;2090302;28;1274;-48
2022/07/03 00:47:10;;;;;;;;;;;;;;;22.43;50.21;102011.78;2098786;28;1007;-50
2022/07/03 00:48:12;;;;;;;;;;;;;;;22.39;50.10;102013.66;2098891;28;1201;-49
2022/07/03 00:49:14;;;;;;;;;;;;;;;22.39;50.08;102005.56;2097881;28;1890;-50
2022/07/03 00:50:14;;;;;;;;;;;;;;;22.38;50.56;102006.50;2098856;28;1217;-52
2022/07/03 00:51:16;;;;;;;;;;;;;;;22.43;50.33;102017.19;2098789;28;1105;-52
2022/07/03 00:52:16;;;;;;;;;;;;;;;22.44;50.14;102013.59;2098842;28;1262;-50
2022/07/03 00:53:31;;;;;;;;;;;;;;;22.45;50.54;102016.28;2098642;28;1226;-53
2022/07/03 00:54:35;;;;;;;;;;;;;;;22.54;50.18;102008.88;2098128;28;1179;-52
2022/07/03 00:55:36;;;;;;;;;;;;;;;22.56;50.07;102013.31;2098853;28;1188;-53
2022/07/03 00:56:37;;;;;;;;;;;;;;;22.57;50.10;102008.81;2098882;28;1138;-53
2022/07/03 00:57:43;;;;;;;;;;;;;;;22.53;49.91;102007.09;2098751;28;1142;-53
2022/07/03 00:58:43;;;;;;;;;;;;;;;22.54;50.63;102007.06;2098836;28;1126;-52
2022/07/03 00:59:43;;;;;;;;;;;;;;;22.48;50.47;102007.19;2098838;28;1147;-50
2022/07/03 01:00:44;;;;;;;;;;;;;;;22.44;50.78;102006.38;2097806;28;1158;-50
2022/07/03 01:01:46;;;;;;;;;;;;;;;22.42;50.56;102012.69;2098714;28;1318;-49
2022/07/03 01:02:53;;;;;;;;;;;;;;;22.37;50.80;102015.50;2098488;28;1110;-48
2022/07/03 01:04:03;;;;;;;;;;;;;;;22.36;50.90;102014.66;2098422;28;1135;-53
2022/07/03 01:05:12;;;;;;;;;;;;;;;22.41;50.59;102016.31;2097369;28;1084;-53
2022/07/03 01:06:13;;;;;;;;;;;;;;;22.45;50.55;102015.34;2098922;28;1135;-50
2022/07/03 01:07:23;;;;;;;;;;;;;;;22.45;51.18;102010.88;2098745;28;1111;-49
2022/07/03 01:08:31;;;;;;;;;;;;;;;22.46;50.95;102014.44;2098628;28;1055;-52
2022/07/03 01:09:42;;;;;;;;;;;;;;;22.48;50.68;102016.19;2096748;28;1906;-51
2022/07/03 01:10:45;;;;;;;;;;;;;;;22.44;50.90;102014.50;2098199;28;1122;-49
2022/07/03 01:11:54;;;;;;;;;;;;;;;22.42;50.77;102010.00;2098547;28;1391;-48
2022/07/03 01:13:00;;;;;;;;;;;;;;;22.40;51.02;102015.44;2097631;28;1051;-49
2022/07/03 01:14:19;;;;;;;;;;;;;;;22.36;50.98;102016.44;2098726;28;1016;-51
2022/07/03 01:15:38;;;;;;;;;;;;;;;22.33;50.99;102017.41;2098693;28;1280;-49
2022/07/03 01:16:38;;;;;;;;;;;;;;;22.31;50.43;102016.56;2098705;28;1246;-48
2022/07/03 01:17:39;;;;;;;;;;;;;;;22.30;50.92;102014.78;2098711;28;1235;-50
2022/07/03 01:18:43;;;;;;;;;;;;;;;22.30;51.16;102016.56;2098712;28;1238;-50
2022/07/03 01:19:45;;;;;;;;;;;;;;;22.32;51.38;102012.94;2098625;28;1102;-52
2022/07/03 01:20:51;;;;;;;;;;;;;;;22.35;51.53;102020.97;2098654;28;1233;-52
2022/07/03 01:22:17;;;;;;;;;;;;;;;22.38;51.40;102016.38;2098640;28;1122;-50
2022/07/03 01:23:24;;;;;;;;;;;;;;;22.42;51.44;102016.31;2098708;28;1231;-53
2022/07/03 01:24:24;;;;;;;;;;;;;;;22.49;51.40;102014.38;2098248;28;1039;-52
2022/07/03 01:25:24;;;;;;;;;;;;;;;22.50;51.13;102014.34;2097669;28;1134;-53
2022/07/03 01:26:27;;;;;;;;;;;;;;;22.52;50.92;102014.31;2098674;28;1181;-52
2022/07/03 01:27:33;;;;;;;;;;;;;;;22.50;50.67;102016.16;2098578;28;1083;-53
2022/07/03 01:28:35;;;;;;;;;;;;;;;22.49;50.50;102014.38;2098498;28;1217;-52
2022/07/03 01:29:57;;;;;;;;;;;;;;;22.43;50.53;102015.38;2098579;28;1910;-50
2022/07/03 01:31:01;;;;;;;;;;;;;;;22.37;50.35;102012.81;2056456;28;1197;-48
2022/07/03 01:32:01;;;;;;;;;;;;;;;22.34;50.39;102012.88;2056652;28;1232;-49
2022/07/03 01:33:06;;;;;;;;;;;;;;;22.34;50.62;102020.97;2056807;28;1227;-49
2022/07/03 01:34:10;;;;;;;;;;;;;;;22.32;49.83;102020.13;2056699;28;1101;-49
2022/07/03 01:35:30;;;;;;;;;;;;;;;22.32;49.45;102029.13;2056865;28;1276;-49
2022/07/03 01:36:32;;;;;;;;;;;;;;;22.30;49.63;102025.56;2056583;28;1449;-49
2022/07/03 01:37:33;;;;;;;;;;;;;;;22.28;49.56;102024.72;2055434;28;1233;-51
2022/07/03 01:38:38;;;;;;;;;;;;;;;22.33;49.22;102021.91;2054015;28;1061;-52
2022/07/03 01:39:40;;;;;;;;;;;;;;;22.41;48.97;102024.41;2056739;28;1121;-52
2022/07/03 01:40:41;;;;;;;;;;;;;;;22.46;49.05;102022.53;2055053;28;1029;-51
2022/07/03 01:41:42;;;;;;;;;;;;;;;22.47;48.69;102024.31;2055063;28;1140;-53
2022/07/03 01:42:44;;;;;;;;;;;;;;;22.45;49.29;102026.16;2056669;28;1160;-53
2022/07/03 01:43:47;;;;;;;;;;;;;;;22.46;49.05;102023.44;2056738;28;1069;-51
2022/07/03 01:44:50;;;;;;;;;;;;;;;22.40;48.91;102023.53;2056730;28;1076;-48
2022/07/03 01:45:52;;;;;;;;;;;;;;;22.38;49.05;102020.00;2056554;28;1092;-48
2022/07/03 01:46:54;;;;;;;;;;;;;;;22.33;49.58;102025.50;2056674;28;1136;-49
2022/07/03 01:47:56;;;;;;;;;;;;;;;22.34;49.28;102026.38;2056509;28;1070;-49
2022/07/03 01:48:57;;;;;;;;;;;;;;;22.32;49.29;102026.44;2056648;28;1914;-49
2022/07/03 01:49:58;;;;;;;;;;;;;;;22.35;49.67;102031.75;2055379;28;1298;-52
2022/07/03 01:50:58;;;;;;;;;;;;;;;22.36;49.70;102025.44;2056300;28;1149;-52
2022/07/03 01:52:00;;;;;;;;;;;;;;;22.36;49.76;102027.22;2056632;28;1225;-48
2022/07/03 01:53:01;;;;;;;;;;;;;;;22.42;49.77;102034.28;2056679;28;1283;-51
2022/07/03 01:54:02;;;;;;;;;;;;;;;22.44;49.89;102024.38;2056683;28;1188;-52
2022/07/03 01:55:02;;;;;;;;;;;;;;;22.50;49.63;102030.56;2056610;28;1149;-52
2022/07/03 01:56:03;;;;;;;;;;;;;;;22.52;49.66;102027.81;2056597;28;1116;-52
2022/07/03 01:57:05;;;;;;;;;;;;;;;22.50;50.19;102029.66;2056632;28;1057;-52
2022/07/03 01:58:05;;;;;;;;;;;;;;;22.49;50.09;102034.19;2056621;28;1219;-51
2022/07/03 01:59:05;;;;;;;;;;;;;;;22.48;50.31;102028.78;2056678;28;1188;-50
2022/07/03 02:00:06;;;;;;;;;;;;;;;22.44;50.23;102029.78;2056539;28;1184;-48
2022/07/03 02:01:30;;;;;;;;;;;;;;;22.41;49.52;102024.41;2056716;28;1145;-49
2022/07/03 02:02:33;;;;;;;;;;;;;;;22.36;50.34;102028.13;2056390;28;1127;-48
2022/07/03 02:03:34;;;;;;;;;;;;;;;22.34;50.49;102029.06;2056587;28;1297;-49
2022/07/03 02:04:40;;;;;;;;;;;;;;;22.39;50.81;102034.34;2056454;28;1186;-53
2022/07/03 02:05:46;;;;;;;;;;;;;;;22.43;50.92;102025.28;2056737;28;1046;-52
2022/07/03 02:07:08;;;;;;;;;;;;;;;22.44;49.86;102025.28;2056759;28;1061;-51
2022/07/03 02:08:27;;;;;;;;;;;;;;;22.47;49.96;102025.22;2056531;28;1095;-53
2022/07/03 02:09:33;;;;;;;;;;;;;;;22.46;50.37;102033.34;2097265;28;1959;-50
2022/07/03 02:10:37;;;;;;;;;;;;;;;22.41;50.83;102033.41;2098537;28;1064;-49
2022/07/03 02:11:39;;;;;;;;;;;;;;;22.40;50.27;102028.03;2098047;28;1059;-50
2022/07/03 02:12:44;;;;;;;;;;;;;;;22.38;50.90;102035.28;2098162;28;1103;-48
2022/07/03 02:14:09;;;;;;;;;;;;;;;22.38;50.95;102032.59;2097776;28;1079;-50
2022/07/03 02:15:10;;;;;;;;;;;;;;;22.37;50.76;102031.72;2098545;28;1188;-48
2022/07/03 02:16:15;;;;;;;;;;;;;;;22.32;51.60;102039.03;2089425;28;1414;-49
2022/07/03 02:17:17;;;;;;;;;;;;;;;22.31;51.10;102035.44;2090410;28;1114;-48
2022/07/03 02:18:36;;;;;;;;;;;;;;;22.30;51.23;102033.66;2098415;28;1106;-50
2022/07/03 02:19:43;;;;;;;;;;;;;;;22.28;51.75;102032.81;2098473;28;1238;-52
2022/07/03 02:20:46;;;;;;;;;;;;;;;22.34;51.96;102029.97;2098627;28;1264;-52
2022/07/03 02:21:48;;;;;;;;;;;;;;;22.36;51.77;102028.13;2098426;28;1181;-51
2022/07/03 02:22:59;;;;;;;;;;;;;;;22.35;52.09;102034.47;2099881;28;1122;-52
2022/07/03 02:24:08;;;;;;;;;;;;;;;22.47;52.28;102029.72;2097755;28;1055;-52
2022/07/03 02:25:25;;;;;;;;;;;;;;;22.48;52.45;102029.69;2100218;28;1182;-53
2022/07/03 02:26:29;;;;;;;;;;;;;;;22.49;52.48;102025.16;2099119;28;1963;-52
2022/07/03 02:27:32;;;;;;;;;;;;;;;22.50;52.58;102029.66;2097720;28;1023;-53
2022/07/03 02:28:54;;;;;;;;;;;;;;;22.48;53.53;102028.78;2099717;28;1244;-51
2022/07/03 02:29:58;;;;;;;;;;;;;;;22.42;54.24;102029.81;2100062;28;1218;-49
2022/07/03 02:31:01;;;;;;;;;;;;;;;22.40;54.08;102030.75;2100091;28;1082;-49
2022/07/03 02:32:07;;;;;;;;;;;;;;;22.39;54.69;102032.56;2100011;28;1095;-48
2022/07/03 02:33:10;;;;;;;;;;;;;;;22.36;54.97;102025.44;2099928;28;1169;-50
2022/07/03 02:34:15;;;;;;;;;;;;;;;22.36;54.33;102030.84;2099879;28;1123;-49
2022/07/03 02:35:18;;;;;;;;;;;;;;;22.34;54.71;102029.97;2100161;28;1003;-51
2022/07/03 02:36:19;;;;;;;;;;;;;;;22.33;54.74;102030.91;2099909;28;1035;-49
2022/07/03 02:37:21;;;;;;;;;;;;;;;22.35;54.86;102028.16;2100238;28;1063;-50
2022/07/03 02:38:23;;;;;;;;;;;;;;;22.36;54.96;102030.84;2098824;28;1099;-53
2022/07/03 02:39:44;;;;;;;;;;;;;;;22.41;55.10;102033.41;2099961;28;1229;-51
2022/07/03 02:40:56;;;;;;;;;;;;;;;22.44;54.65;102027.09;2098791;28;1007;-50
2022/07/03 02:42:01;;;;;;;;;;;;;;;22.45;54.61;102026.16;2100117;28;988;-53
2022/07/03 02:43:17;;;;;;;;;;;;;;;22.43;55.02;102031.56;2099992;28;1102;-53
2022/07/03 02:44:31;;;;;;;;;;;;;;;22.38;54.84;102021.78;2098787;28;1166;-49
2022/07/03 02:45:55;;;;;;;;;;;;;;;22.33;54.60;102028.22;2100048;28;1271;-48
2022/07/03 02:47:13;;;;;;;;;;;;;;;22.34;53.99;102032.69;2099721;28;1143;-48
2022/07/03 02:48:22;;;;;;;;;;;;;;;22.31;54.07;102034.53;2098070;28;1033;-50
2022/07/03 02:49:41;;;;;;;;;;;;;;;22.27;53.86;102036.44;2100065;28;1902;-52
2022/07/03 02:50:45;;;;;;;;;;;;;;;22.29;53.44;102031.91;2098968;28;1039;-51
2022/07/03 02:51:53;;;;;;;;;;;;;;;22.27;52.92;102033.75;2099972;28;1059;-50
2022/07/03 02:53:03;;;;;;;;;;;;;;;22.30;52.50;102030.97;2100053;28;1297;-53
2022/07/03 02:54:11;;;;;;;;;;;;;;;22.35;52.39;102034.47;2099790;28;1066;-54
2022/07/03 02:55:14;;;;;;;;;;;;;;;22.39;51.20;102034.34;2099906;28;940;-53
2022/07/03 02:56:18;;;;;;;;;;;;;;;22.39;51.63;102034.34;2099806;28;1008;-53
2022/07/03 02:57:19;;;;;;;;;;;;;;;22.36;51.10;102033.53;2099923;28;1044;-53
2022/07/03 02:58:45;;;;;;;;;;;;;;;22.34;51.23;102029.06;2099865;28;1000;-50
2022/07/03 02:59:54;;;;;;;;;;;;;;;22.28;50.93;102032.81;2099823;28;1010;-50
2022/07/03 03:01:08;;;;;;;;;;;;;;;22.25;50.73;102026.56;2099931;28;1135;-49
2022/07/03 03:02:11;;;;;;;;;;;;;;;22.23;49.95;102023.94;2090800;28;1330;-53
2022/07/03 03:03:11;;;;;;;;;;;;;;;22.22;50.24;102030.25;2090829;28;1205;-49
2022/07/03 03:04:13;;;;;;;;;;;;;;;22.18;50.72;102032.09;2099718;28;1240;-51
2022/07/03 03:05:26;;;;;;;;;;;;;;;22.26;49.43;102025.66;2099692;28;1122;-51
2022/07/03 03:06:26;;;;;;;;;;;;;;;22.27;49.38;102022.94;2099844;28;1027;-50
2022/07/03 03:07:33;;;;;;;;;;;;;;;22.30;49.76;102033.66;2099697;28;1047;-52
2022/07/03 03:08:40;;;;;;;;;;;;;;;22.29;49.32;102028.28;2099829;28;1356;-53
2022/07/03 03:09:42;;;;;;;;;;;;;;;22.29;49.80;102029.19;2099682;28;1959;-53
2022/07/03 03:10:43;;;;;;;;;;;;;;;22.26;49.95;102034.66;2099493;28;1127;-49
2022/07/03 03:11:45;;;;;;;;;;;;;;;22.23;49.40;102034.72;2090773;28;1182;-48
2022/07/03 03:12:46;;;;;;;;;;;;;;;22.19;49.64;102027.63;2088162;28;1012;-48
2022/07/03 03:13:54;;;;;;;;;;;;;;;22.20;50.04;102029.38;2099780;28;1058;-48
2022/07/03 03:14:59;;;;;;;;;;;;;;;22.16;49.73;102024.97;2099725;28;1180;-50
2022/07/03 03:16:07;;;;;;;;;;;;;;;22.17;50.28;102029.44;2098806;28;1095;-49
2022/07/03 03:17:08;;;;;;;;;;;;;;;22.16;50.47;102030.38;2099791;28;1233;-50
2022/07/03 03:18:11;;;;;;;;;;;;;;;22.12;50.68;102024.13;2090742;28;1235;-49
2022/07/03 03:19:12;;;;;;;;;;;;;;;22.11;51.24;102032.28;2091029;28;1131;-51
2022/07/03 03:20:15;;;;;;;;;;;;;;;22.20;50.79;102030.25;2099782;28;1059;-52
2022/07/03 03:21:16;;;;;;;;;;;;;;;22.22;50.95;102024.84;2096928;28;1058;-51
2022/07/03 03:22:35;;;;;;;;;;;;;;;22.23;50.87;102026.63;2099048;28;1095;-49
2022/07/03 03:23:48;;;;;;;;;;;;;;;22.27;50.99;102027.44;2099546;28;1119;-53
2022/07/03 03:24:48;;;;;;;;;;;;;;;22.32;51.06;102025.53;2097067;28;972;-51
2022/07/03 03:25:50;;;;;;;;;;;;;;;22.33;50.65;102020.09;2099538;28;1137;-53
2022/07/03 03:26:50;;;;;;;;;;;;;;;22.33;50.69;102019.19;2099627;28;1043;-52
2022/07/03 03:27:51;;;;;;;;;;;;;;;22.32;50.53;102015.63;2098208;28;1187;-53
2022/07/03 03:28:51;;;;;;;;;;;;;;;22.30;51.71;102022.88;2099645;28;1175;-50
2022/07/03 03:29:52;;;;;;;;;;;;;;;22.28;50.89;102024.72;2099534;28;1923;-49
2022/07/03 03:30:52;;;;;;;;;;;;;;;22.24;51.64;102025.72;2099568;28;1046;-49
2022/07/03 03:31:52;;;;;;;;;;;;;;;22.17;51.10;102024.06;2099406;28;1042;-50
2022/07/03 03:32:52;;;;;;;;;;;;;;;22.20;51.31;102022.16;2099444;28;1105;-49
2022/07/03 03:33:55;;;;;;;;;;;;;;;22.21;51.81;102029.34;2098718;28;1201;-48
2022/07/03 03:34:55;;;;;;;;;;;;;;;22.19;51.34;102027.63;2099507;28;1025;-51
2022/07/03 03:35:55;;;;;;;;;;;;;;;22.21;51.39;102023.06;2099348;28;1118;-51
2022/07/03 03:36:55;;;;;;;;;;;;;;;22.19;52.18;102030.31;2099512;28;1099;-50
2022/07/03 03:37:55;;;;;;;;;;;;;;;22.17;51.78;102030.31;2099413;28;1059;-51
2022/07/03 03:38:56;;;;;;;;;;;;;;;22.24;52.08;102027.50;2099430;28;1099;-52
2022/07/03 03:39:57;;;;;;;;;;;;;;;22.27;51.91;102022.94;2098264;28;1090;-52
2022/07/03 03:40:58;;;;;;;;;;;;;;;22.30;51.74;102027.38;2099530;28;1238;-51
2022/07/03 03:42:00;;;;;;;;;;;;;;;22.29;51.31;102026.50;2099346;28;991;-53
2022/07/03 03:43:01;;;;;;;;;;;;;;;22.32;51.28;102015.63;2099608;28;1130;-51
2022/07/03 03:44:02;;;;;;;;;;;;;;;22.27;51.67;102032.84;2099339;28;1190;-50
2022/07/03 03:45:02;;;;;;;;;;;;;;;22.25;52.01;102024.78;2099388;28;1260;-48
2022/07/03 03:46:02;;;;;;;;;;;;;;;22.23;51.81;102021.22;2099336;28;1114;-49
2022/07/03 03:47:02;;;;;;;;;;;;;;;22.24;52.24;102023.00;2099434;28;1012;-48
2022/07/03 03:48:03;;;;;;;;;;;;;;;22.21;52.11;102031.16;2099265;28;1028;-48
2022/07/03 03:49:03;;;;;;;;;;;;;;;22.20;52.30;102021.28;2099348;28;1890;-50
2022/07/03 03:50:04;;;;;;;;;;;;;;;22.23;51.88;102026.63;2099368;28;1131;-53
2022/07/03 03:51:04;;;;;;;;;;;;;;;22.23;52.42;102031.13;2099417;28;1058;-51
2022/07/03 03:52:05;;;;;;;;;;;;;;;22.24;52.47;102028.41;2098810;28;1062;-49
2022/07/03 03:53:06;;;;;;;;;;;;;;;22.24;51.83;102030.19;2099072;28;1013;-53
2022/07/03 03:54:06;;;;;;;;;;;;;;;22.30;52.08;102024.66;2099369;28;1114;-51
2022/07/03 03:55:08;;;;;;;;;;;;;;;22.32;51.36;102030.91;2099430;28;1051;-52
2022/07/03 03:56:10;;;;;;;;;;;;;;;22.31;51.28;102023.75;2099424;28;1075;-52
2022/07/03 03:57:17;;;;;;;;;;;;;;;22.31;50.32;102021.03;2099436;28;1158;-53
2022/07/03 03:58:18;;;;;;;;;;;;;;;22.32;50.34;102030.91;2099399;28;1179;-49
2022/07/03 03:59:18;;;;;;;;;;;;;;;22.26;50.32;102025.66;2099283;28;1241;-50
2022/07/03 04:00:18;;;;;;;;;;;;;;;22.24;50.21;102022.09;2099177;28;1272;-48
2022/07/03 04:01:18;;;;;;;;;;;;;;;22.20;50.26;102027.56;2099367;28;1193;-49
2022/07/03 04:02:18;;;;;;;;;;;;;;;22.23;50.21;102025.72;2099220;28;1075;-49
2022/07/03 04:03:19;;;;;;;;;;;;;;;23.02;47.92;102026.63;2099237;28;1313;-50
2022/07/03 04:04:21;;;;;;;;;;;;;;;23.29;47.21;102025.03;2099045;28;1050;-51
2022/07/03 04:05:21;;;;;;;;;;;;;;;23.48;46.15;102020.06;2098469;28;1050;-49
2022/07/03 04:06:21;;;;;;;;;;;;;;;23.58;45.80;102020.69;2099089;28;1138;-50
2022/07/03 04:07:21;;;;;;;;;;;;;;;23.66;45.77;102017.75;2099236;28;1134;-49
2022/07/03 04:08:22;;;;;;;;;;;;;;;23.74;45.67;102014.84;2099190;28;1323;-53
2022/07/03 04:09:22;;;;;;;;;;;;;;;23.84;44.91;102013.66;2099086;28;1949;-51
2022/07/03 04:10:22;;;;;;;;;;;;;;;23.93;44.69;102018.78;2099061;28;1340;-51
2022/07/03 04:11:22;;;;;;;;;;;;;;;23.97;45.11;102016.88;2099126;28;1313;-51
2022/07/03 04:12:23;;;;;;;;;;;;;;;24.04;45.06;102023.03;2099143;28;1154;-53
2022/07/03 04:13:23;;;;;;;;;;;;;;;24.02;44.54;102025.78;2099145;28;1205;-53
2022/07/03 04:14:24;;;;;;;;;;;;;;;24.10;44.78;102029.16;2099185;28;1146;-49
2022/07/03 04:15:24;;;;;;;;;;;;;;;24.11;44.87;102025.53;2099217;28;1288;-48
2022/07/03 04:16:24;;;;;;;;;;;;;;;24.11;44.52;102025.53;2099160;28;1119;-48
2022/07/03 04:17:24;;;;;;;;;;;;;;;24.14;44.87;102021.81;2098126;28;1222;-48
2022/07/03 04:18:25;;;;;;;;;;;;;;;24.18;45.23;102025.31;2099250;28;1346;-48
2022/07/03 04:19:25;;;;;;;;;;;;;;;24.22;44.89;102018.88;2098757;28;1088;-52
2022/07/03 04:20:25;;;;;;;;;;;;;;;24.19;44.34;102022.56;2098638;28;1074;-52
2022/07/03 04:21:25;;;;;;;;;;;;;;;24.31;44.60;102015.00;2099088;28;1083;-52
2022/07/03 04:22:25;;;;;;;;;;;;;;;24.30;44.82;102022.22;2099239;28;1209;-51
2022/07/03 04:23:25;;;;;;;;;;;;;;;24.31;44.89;102017.72;2099134;28;1130;-54
2022/07/03 04:24:26;;;;;;;;;;;;;;;24.33;44.60;102014.03;2099080;28;1141;-52
2022/07/03 04:25:26;;;;;;;;;;;;;;;24.27;45.46;102016.91;2098901;28;1108;-53
2022/07/03 04:26:26;;;;;;;;;;;;;;;24.27;45.26;102019.63;2099074;28;1103;-53
2022/07/03 04:27:27;;;;;;;;;;;;;;;24.27;45.84;102016.91;2099079;28;1146;-54
2022/07/03 04:28:27;;;;;;;;;;;;;;;24.30;45.55;102013.25;2098903;28;1449;-49
2022/07/03 04:29:27;;;;;;;;;;;;;;;24.32;45.72;102012.25;2097970;28;1971;-49
2022/07/03 04:30:27;;;;;;;;;;;;;;;24.37;45.58;102014.81;2098874;28;1196;-49
2022/07/03 04:31:27;;;;;;;;;;;;;;;24.36;45.28;102011.22;2098832;28;1191;-49
2022/07/03 04:32:27;;;;;;;;;;;;;;;24.37;45.54;102013.00;2098932;28;1141;-50
2022/07/03 04:33:28;;;;;;;;;;;;;;;24.39;46.29;102011.13;2098720;28;1067;-49
2022/07/03 04:34:28;;;;;;;;;;;;;;;24.40;45.80;102017.44;2098896;28;1255;-49
2022/07/03 04:35:28;;;;;;;;;;;;;;;24.40;45.89;102015.59;2098780;28;1090;-50
2022/07/03 04:36:28;;;;;;;;;;;;;;;24.42;46.23;102018.28;2098879;28;1254;-48
2022/07/03 04:37:28;;;;;;;;;;;;;;;24.43;46.31;102017.34;2098751;28;1059;-49
2022/07/03 04:38:30;;;;;;;;;;;;;;;24.48;45.71;102012.66;2098889;28;1130;-53
2022/07/03 04:39:30;;;;;;;;;;;;;;;24.42;45.99;102021.00;2089897;28;1110;-52
2022/07/03 04:40:30;;;;;;;;;;;;;;;24.46;46.33;102021.75;2090075;28;1159;-52
2022/07/03 04:41:30;;;;;;;;;;;;;;;24.47;46.44;102020.84;2098626;28;1287;-51
2022/07/03 04:42:30;;;;;;;;;;;;;;;24.46;46.36;102013.63;2097957;28;1199;-54
2022/07/03 04:43:31;;;;;;;;;;;;;;;24.50;46.11;102015.31;2098811;28;1267;-51
2022/07/03 04:44:31;;;;;;;;;;;;;;;24.45;46.49;102025.41;2098762;28;1213;-49
2022/07/03 04:45:31;;;;;;;;;;;;;;;24.49;46.07;102021.66;2098142;28;1410;-47
2022/07/03 04:46:31;;;;;;;;;;;;;;;24.50;46.37;102023.44;2098446;28;1377;-48
2022/07/03 04:47:31;;;;;;;;;;;;;;;24.48;46.84;102011.78;2098839;28;1122;-48
2022/07/03 04:48:31;;;;;;;;;;;;;;;24.55;46.79;102024.19;2098809;28;1308;-51
2022/07/03 04:49:32;;;;;;;;;;;;;;;24.56;46.94;102015.13;2098672;28;1956;-53
2022/07/03 04:50:32;;;;;;;;;;;;;;;24.64;46.57;102023.00;2098831;28;1201;-51
2022/07/03 04:51:32;;;;;;;;;;;;;;;24.66;46.54;102021.13;2098556;28;1339;-51
2022/07/03 04:52:32;;;;;;;;;;;;;;;24.61;47.42;102026.72;2098762;28;1288;-51
2022/07/03 04:53:32;;;;;;;;;;;;;;;24.62;47.59;102020.34;2098744;28;1319;-53
2022/07/03 04:54:32;;;;;;;;;;;;;;;24.57;47.90;102025.03;2097636;28;1225;-52
2022/07/03 04:55:33;;;;;;;;;;;;;;;24.53;48.22;102021.50;2098893;28;1269;-52
2022/07/03 04:56:33;;;;;;;;;;;;;;;24.53;48.32;102015.22;2098831;28;1225;-53
2022/07/03 04:57:33;;;;;;;;;;;;;;;24.51;48.91;102022.50;2096812;28;1122;-54
2022/07/03 04:58:33;;;;;;;;;;;;;;;24.59;48.60;102023.16;2098798;28;1047;-51
2022/07/03 04:59:33;;;;;;;;;;;;;;;24.60;48.55;102026.75;2098709;28;1059;-49
2022/07/03 05:00:33;;;;;;;;;;;;;;;24.59;48.37;102012.31;2098763;28;1051;-49
2022/07/03 05:01:33;;;;;;;;;;;;;;;24.65;48.56;102011.22;2098668;28;1238;-50
2022/07/03 05:02:34;;;;;;;;;;;;;;;24.65;49.04;102011.22;2098792;28;1058;-49
2022/07/03 05:03:34;;;;;;;;;;;;;;;24.67;48.27;102012.06;2098681;28;1086;-49
2022/07/03 05:04:34;;;;;;;;;;;;;;;24.61;48.28;102006.84;2098758;28;1118;-52
2022/07/03 05:05:34;;;;;;;;;;;;;;;24.63;48.50;102011.28;2089694;28;1549;-50
2022/07/03 05:06:34;;;;;;;;;;;;;;;24.60;48.48;102008.69;2089704;28;1303;-51
2022/07/03 05:07:34;;;;;;;;;;;;;;;24.60;48.03;102016.81;2098206;28;1323;-51
2022/07/03 05:08:34;;;;;;;;;;;;;;;24.58;47.86;102002.41;2090032;28;1115;-53
2022/07/03 05:09:35;;;;;;;;;;;;;;;24.61;47.31;102009.53;2089742;28;1968;-51
2022/07/03 05:10:35;;;;;;;;;;;;;;;24.61;47.37;102004.13;2098731;28;1114;-50
2022/07/03 05:11:35;;;;;;;;;;;;;;;24.62;47.14;102006.81;2098710;28;1090;-49
2022/07/03 05:12:36;;;;;;;;;;;;;;;24.64;47.01;102006.75;2090002;28;963;-49
2022/07/03 05:13:36;;;;;;;;;;;;;;;24.65;46.22;102011.22;2089999;28;999;-48
2022/07/03 05:14:36;;;;;;;;;;;;;;;24.68;45.77;102013.84;2098836;28;991;-49
2022/07/03 05:15:36;;;;;;;;;;;;;;;24.68;45.70;102020.16;2098648;28;1098;-50
2022/07/03 05:16:36;;;;;;;;;;;;;;;24.67;45.67;102012.97;2098824;28;1018;-49
2022/07/03 05:17:36;;;;;;;;;;;;;;;24.65;44.91;102016.66;2098703;28;991;-48
2022/07/03 05:18:37;;;;;;;;;;;;;;;24.73;44.45;102021.88;2098762;28;1051;-49
2022/07/03 05:19:37;;;;;;;;;;;;;;;24.71;44.17;102016.44;2097590;28;1050;-53
2022/07/03 05:20:37;;;;;;;;;;;;;;;24.69;44.10;102015.59;2098760;28;1063;-52
2022/07/03 05:21:38;;;;;;;;;;;;;;;24.69;44.17;102015.59;2098655;28;1030;-51
2022/07/03 05:22:38;;;;;;;;;;;;;;;24.78;44.19;102018.06;2098677;28;1103;-53
2022/07/03 05:23:38;;;;;;;;;;;;;;;24.66;44.11;102019.31;2098618;28;1058;-53
2022/07/03 05:24:38;;;;;;;;;;;;;;;24.65;43.71;102022.97;2096161;28;1062;-52
2022/07/03 05:25:38;;;;;;;;;;;;;;;24.62;43.53;102014.94;2098521;28;1086;-52
2022/07/03 05:26:38;;;;;;;;;;;;;;;24.62;43.88;102019.44;2098633;28;1105;-52
2022/07/03 05:27:39;;;;;;;;;;;;;;;24.64;44.08;102021.19;2098446;28;1284;-52
2022/07/03 05:28:39;;;;;;;;;;;;;;;24.62;44.23;102019.44;2098651;28;1082;-51